createdAt,value
2023-12-11T00:00:55.341Z,91607.94
2023-12-11T00:03:24.008Z,91613.91
2023-12-11T00:05:52.654Z,91624.53
2023-12-11T00:08:21.233Z,91620.31
2023-12-11T00:10:51.547Z,91631.91
2023-12-11T00:13:20.097Z,91626.09
2023-12-11T00:15:48.903Z,91632.13
2023-12-11T00:18:17.789Z,91634.94
2023-12-11T00:20:46.385Z,91620.19
2023-12-11T00:23:14.936Z,91622.47
2023-12-11T00:25:48.220Z,91621.47
2023-12-11T00:28:18.740Z,91638.31
2023-12-11T00:30:47.355Z,91657.22
2023-12-11T00:33:15.978Z,91628.56
2023-12-11T00:35:44.761Z,91634.78
2023-12-11T00:38:13.346Z,91649.72
2023-12-11T00:40:41.877Z,91626.22
2023-12-11T00:43:10.451Z,91636.34
2023-12-11T00:45:40.482Z,91634.41
2023-12-11T00:48:09.180Z,91648.53
2023-12-11T00:50:37.992Z,91631.44
2023-12-11T00:53:06.548Z,91638.63
2023-12-11T00:55:35.073Z,91636.94
2023-12-11T00:58:03.605Z,91619.41
2023-12-11T01:00:32.285Z,91626.38
2023-12-11T01:03:04.147Z,91624.81
2023-12-11T01:05:33.075Z,91634.75
2023-12-11T01:08:01.650Z,91622.84
2023-12-11T01:10:30.164Z,91633.50
2023-12-11T01:12:58.708Z,91641.25
2023-12-11T01:15:27.441Z,91652.31
2023-12-11T01:17:56.588Z,91656.50
2023-12-11T01:20:26.997Z,91660.06
2023-12-11T01:22:55.532Z,91641.66
2023-12-11T01:25:24.134Z,91651.63
2023-12-11T01:27:52.690Z,91645.16
2023-12-11T01:30:21.465Z,91676.66
2023-12-11T01:32:50.160Z,91674.22
2023-12-11T01:35:18.897Z,91675.72
2023-12-11T01:37:48.830Z,91673.69
2023-12-11T01:40:17.483Z,91677.69
2023-12-11T01:42:46.073Z,91684.53
2023-12-11T01:45:14.864Z,91677.28
2023-12-11T01:47:43.570Z,91668.03
2023-12-11T01:50:13.927Z,91659.56
2023-12-11T01:52:42.766Z,91655.78
2023-12-11T01:55:13.202Z,91666.16
2023-12-11T01:57:41.758Z,91660.03
2023-12-11T02:00:12.657Z,91666.53
2023-12-11T02:02:42.330Z,91671.97
2023-12-11T02:05:11.004Z,91660.84
2023-12-11T02:07:58.146Z,91664.53
2023-12-11T02:10:46.938Z,91680.78
2023-12-11T02:13:35.883Z,91679.09
2023-12-11T02:16:23.047Z,91670.00
2023-12-11T02:19:10.467Z,91661.63
2023-12-11T02:21:57.670Z,91661.41
2023-12-11T02:24:51.841Z,91661.56
2023-12-11T02:27:40.125Z,91657.72
2023-12-11T02:30:27.329Z,91678.25
2023-12-11T02:33:14.656Z,91678.59
2023-12-11T02:36:02.126Z,91665.34
2023-12-11T02:38:49.114Z,91677.72
2023-12-11T02:41:36.155Z,91684.06
2023-12-11T02:44:24.832Z,91683.16
2023-12-11T02:47:12.021Z,91680.78
2023-12-11T02:49:59.379Z,91678.34
2023-12-11T02:52:46.257Z,91679.94
2023-12-11T02:55:33.888Z,91668.56
2023-12-11T02:58:21.218Z,91669.09
2023-12-11T03:01:09.766Z,91657.81
2023-12-11T03:03:57.534Z,91659.88
2023-12-11T03:06:44.563Z,91664.63
2023-12-11T03:09:31.620Z,91662.38
2023-12-11T03:12:20.146Z,91671.50
2023-12-11T03:15:09.550Z,91684.41
2023-12-11T03:17:58.091Z,91669.13
2023-12-11T03:20:45.310Z,91662.56
2023-12-11T03:23:32.608Z,91666.63
2023-12-11T03:26:19.673Z,91662.38
2023-12-11T03:29:06.824Z,91657.56
2023-12-11T03:31:53.868Z,91666.53
2023-12-11T03:34:42.732Z,91663.13
2023-12-11T03:37:30.456Z,91660.03
2023-12-11T03:40:17.844Z,91651.66
2023-12-11T03:43:05.614Z,91656.19
2023-12-11T03:45:57.417Z,91629.03
2023-12-11T03:48:45.011Z,91629.88
2023-12-11T03:51:33.676Z,91633.22
2023-12-11T03:54:20.922Z,91625.47
2023-12-11T03:57:08.207Z,91625.44
2023-12-11T03:59:55.481Z,91627.88
2023-12-11T04:02:42.499Z,91645.91
2023-12-11T04:05:29.749Z,91639.88
2023-12-11T04:08:18.486Z,91651.06
2023-12-11T04:11:06.323Z,91636.34
2023-12-11T04:13:53.539Z,91654.06
2023-12-11T04:16:43.828Z,91640.91
2023-12-11T04:19:30.993Z,91634.03
2023-12-11T04:22:18.382Z,91641.72
2023-12-11T04:25:08.066Z,91660.44
2023-12-11T04:27:55.197Z,91643.59
2023-12-11T04:30:23.856Z,91642.19
2023-12-11T04:32:52.513Z,91651.31
2023-12-11T04:35:21.555Z,91653.13
2023-12-11T04:37:50.366Z,91650.25
2023-12-11T04:40:20.354Z,91644.78
2023-12-11T04:42:48.931Z,91632.25
2023-12-11T04:45:17.522Z,91629.03
2023-12-11T04:47:46.176Z,91624.59
2023-12-11T04:50:14.953Z,91616.63
2023-12-11T04:52:43.517Z,91616.09
2023-12-11T04:55:12.285Z,91619.59
2023-12-11T04:57:42.365Z,91621.88
2023-12-11T05:00:12.645Z,91627.97
2023-12-11T05:02:41.395Z,91632.66
2023-12-11T05:05:11.290Z,91627.75
2023-12-11T05:07:39.897Z,91626.09
2023-12-11T05:10:09.154Z,91629.66
2023-12-11T05:12:37.745Z,91619.56
2023-12-11T05:15:09.262Z,91623.66
2023-12-11T05:17:37.883Z,91615.75
2023-12-11T05:20:08.579Z,91608.56
2023-12-11T05:22:37.154Z,91602.44
2023-12-11T05:25:06.991Z,91591.38
2023-12-11T05:27:35.657Z,91602.81
2023-12-11T05:30:04.623Z,91611.97
2023-12-11T05:32:34.724Z,91622.13
2023-12-11T05:35:03.456Z,91607.16
2023-12-11T05:37:32.155Z,91617.09
2023-12-11T05:40:20.905Z,91623.22
2023-12-11T05:42:49.511Z,91607.06
2023-12-11T05:45:18.362Z,91605.88
2023-12-11T05:47:49.145Z,91614.72
2023-12-11T05:50:18.082Z,91616.47
2023-12-11T05:52:46.718Z,91633.13
2023-12-11T05:55:15.816Z,91628.28
2023-12-11T05:57:47.017Z,91630.66
2023-12-11T06:00:18.185Z,91628.31
2023-12-11T06:02:48.550Z,91618.47
2023-12-11T06:05:17.385Z,91623.72
2023-12-11T06:07:45.967Z,91621.63
2023-12-11T06:10:14.653Z,91627.75
2023-12-11T06:12:43.273Z,91629.81
2023-12-11T06:15:12.203Z,91632.81
2023-12-11T06:17:40.957Z,91631.75
2023-12-11T06:20:12.570Z,91632.41
2023-12-11T06:22:41.100Z,91623.78
2023-12-11T06:25:10.520Z,91629.25
2023-12-11T06:27:39.314Z,91602.13
2023-12-11T06:30:09.636Z,91629.44
2023-12-11T06:32:38.240Z,91624.50
2023-12-11T06:35:08.366Z,91605.41
2023-12-11T06:37:38.840Z,91600.47
2023-12-11T06:40:10.319Z,91599.81
2023-12-11T06:42:39.838Z,91599.03
2023-12-11T06:45:10.371Z,91590.94
2023-12-11T06:47:39.736Z,91572.47
2023-12-11T06:50:09.609Z,91587.00
2023-12-11T06:52:39.867Z,91584.09
2023-12-11T06:55:09.948Z,91572.97
2023-12-11T06:57:39.918Z,91562.31
2023-12-11T07:00:11.102Z,91549.53
2023-12-11T07:02:39.995Z,91551.13
2023-12-11T07:05:09.910Z,91554.38
2023-12-11T07:07:40.025Z,91550.88
2023-12-11T07:10:09.377Z,91546.31
2023-12-11T07:12:40.420Z,91546.44
2023-12-11T07:15:09.460Z,91534.66
2023-12-11T07:17:38.327Z,91544.00
2023-12-11T07:20:08.890Z,91527.03
2023-12-11T07:22:37.483Z,91526.88
2023-12-11T07:25:08.964Z,91543.50
2023-12-11T07:27:37.645Z,91549.06
2023-12-11T07:30:08.141Z,91553.34
2023-12-11T07:32:36.915Z,91548.13
2023-12-11T07:35:08.588Z,91553.56
2023-12-11T07:37:37.186Z,91549.75
2023-12-11T07:40:09.206Z,91563.06
2023-12-11T07:42:37.974Z,91569.13
2023-12-11T07:45:08.046Z,91593.09
2023-12-11T07:47:36.963Z,91601.22
2023-12-11T07:50:06.843Z,91605.25
2023-12-11T07:52:36.370Z,91608.88
2023-12-11T07:55:07.840Z,91607.59
2023-12-11T07:57:37.597Z,91598.69
2023-12-11T08:02:57.095Z,91597.91
2023-12-11T08:05:26.109Z,91582.66
2023-12-11T08:07:54.716Z,91574.22
2023-12-11T08:10:24.793Z,91575.91
2023-12-11T08:12:53.958Z,91572.81
2023-12-11T08:15:22.766Z,91577.75
2023-12-11T08:17:52.020Z,91586.41
2023-12-11T08:20:21.763Z,91581.66
2023-12-11T08:22:50.418Z,91567.59
2023-12-11T08:25:19.440Z,91540.94
2023-12-11T08:27:49.825Z,91516.72
2023-12-11T08:30:18.454Z,91496.16
2023-12-11T08:32:47.199Z,91478.31
2023-12-11T08:35:16.685Z,91475.94
2023-12-11T08:37:45.713Z,91484.13
2023-12-11T08:40:16.439Z,91522.25
2023-12-11T08:42:45.017Z,91559.94
2023-12-11T08:45:15.451Z,91574.03
2023-12-11T08:47:44.563Z,91582.25
2023-12-11T08:50:14.295Z,91594.13
2023-12-11T08:52:45.410Z,91602.50
2023-12-11T08:55:14.003Z,91620.97
2023-12-11T08:57:45.023Z,91630.38
2023-12-11T09:00:16.878Z,91624.22
2023-12-11T09:02:45.712Z,91617.06
2023-12-11T09:05:14.295Z,91606.34
2023-12-11T09:07:42.890Z,91609.81
2023-12-11T09:10:11.953Z,91603.66
2023-12-11T09:12:41.552Z,91591.44
2023-12-11T09:15:12.034Z,91596.44
2023-12-11T09:17:43.850Z,91620.28
2023-12-11T09:20:13.048Z,91614.06
2023-12-11T09:22:42.942Z,91599.50
2023-12-11T09:25:12.820Z,91605.97
2023-12-11T09:27:41.503Z,91617.13
2023-12-11T09:30:11.937Z,91639.03
2023-12-11T09:32:42.362Z,91628.25
2023-12-11T09:35:12.131Z,91623.66
2023-12-11T09:37:40.930Z,91613.28
2023-12-11T09:40:12.177Z,91611.44
2023-12-11T09:42:43.420Z,91614.28
2023-12-11T09:45:14.468Z,91600.72
2023-12-11T09:47:59.930Z,91591.53
2023-12-11T09:50:39.578Z,91585.78
2023-12-11T09:53:09.591Z,91573.94
2023-12-11T09:55:38.324Z,91570.78
2023-12-11T09:58:08.241Z,91571.72
2023-12-11T10:00:38.468Z,91574.28
2023-12-11T10:03:09.759Z,91587.25
2023-12-11T10:05:39.210Z,91608.38
2023-12-11T10:08:07.978Z,91622.50
2023-12-11T10:10:39.751Z,91614.53
2023-12-11T10:13:08.520Z,91616.81
2023-12-11T10:15:38.799Z,91622.91
2023-12-11T10:18:11.721Z,91604.13
2023-12-11T10:20:43.567Z,91584.59
2023-12-11T10:23:18.250Z,91589.13
2023-12-11T10:25:49.636Z,91636.66
2023-12-11T10:28:20.928Z,91592.53
2023-12-11T10:30:56.174Z,91619.38
2023-12-11T10:33:28.504Z,91609.84
2023-12-11T10:36:13.745Z,91625.16
2023-12-11T10:38:43.057Z,91619.06
2023-12-11T10:41:26.587Z,91611.38
2023-12-11T10:44:08.440Z,91625.16
2023-12-11T10:46:43.952Z,91617.59
2023-12-11T10:49:14.269Z,91608.03
2023-12-11T10:51:44.119Z,91612.94
2023-12-11T10:54:12.807Z,91600.28
2023-12-11T10:56:45.511Z,91583.03
2023-12-11T10:59:14.697Z,91585.72
2023-12-11T11:01:48.118Z,91569.81
2023-12-11T11:04:21.044Z,91577.44
2023-12-11T11:06:57.069Z,91584.25
2023-12-11T11:09:36.004Z,91564.06
2023-12-11T11:12:15.240Z,91551.59
2023-12-11T11:14:53.212Z,91579.94
2023-12-11T11:17:21.998Z,91583.78
2023-12-11T11:20:15.877Z,91602.22
2023-12-11T11:22:44.554Z,91591.09
2023-12-11T11:25:33.053Z,91593.03
2023-12-11T11:28:02.617Z,91589.94
2023-12-11T11:30:53.617Z,91615.63
2023-12-11T11:33:23.834Z,91613.72
2023-12-11T11:35:56.086Z,91585.06
2023-12-11T11:38:55.302Z,91597.31
2023-12-11T11:41:26.761Z,91595.31
2023-12-11T11:44:05.733Z,91612.22
2023-12-11T11:46:54.795Z,91616.38
2023-12-11T11:49:35.839Z,91638.25
2023-12-11T11:52:10.747Z,91628.63
2023-12-11T11:54:42.069Z,91628.63
2023-12-11T11:57:10.638Z,91632.88
2023-12-11T11:59:45.898Z,91628.22
2023-12-11T12:02:14.635Z,91622.91
2023-12-11T12:04:43.912Z,91635.16
2023-12-11T12:07:14.028Z,91624.00
2023-12-11T12:09:43.384Z,91628.97
2023-12-11T12:12:17.085Z,91613.31
2023-12-11T12:14:46.387Z,91627.16
2023-12-11T12:17:15.171Z,91626.69
2023-12-11T12:19:43.766Z,91622.06
2023-12-11T12:22:15.468Z,91631.69
2023-12-11T12:24:49.939Z,91628.97
2023-12-11T12:27:24.641Z,91626.28
2023-12-11T12:29:55.701Z,91627.84
2023-12-11T12:32:25.065Z,91627.47
2023-12-11T12:34:55.831Z,91618.25
2023-12-11T12:37:27.485Z,91613.56
2023-12-11T12:39:58.833Z,91611.69
2023-12-11T12:42:32.194Z,91607.47
2023-12-11T12:45:00.805Z,91608.94
2023-12-11T12:47:29.563Z,91617.38
2023-12-11T12:49:58.453Z,91612.38
2023-12-11T12:52:31.902Z,91623.06
2023-12-11T12:55:00.748Z,91635.41
2023-12-11T12:57:29.694Z,91636.22
2023-12-11T12:59:59.039Z,91633.59
2023-12-11T13:02:28.824Z,91635.06
2023-12-11T13:04:57.559Z,91640.03
2023-12-11T13:07:28.656Z,91649.53
2023-12-11T13:09:57.937Z,91653.44
2023-12-11T13:12:26.590Z,91643.09
2023-12-11T13:14:56.897Z,91651.56
2023-12-11T13:17:25.931Z,91656.56
2023-12-11T13:19:54.788Z,91658.88
2023-12-11T13:22:23.758Z,91661.88
2023-12-11T13:24:54.126Z,91663.06
2023-12-11T13:27:27.501Z,91671.84
2023-12-11T13:29:56.223Z,91675.28
2023-12-11T13:32:24.732Z,91673.38
2023-12-11T13:34:53.628Z,91663.78
2023-12-11T13:37:22.295Z,91672.66
2023-12-11T13:39:51.070Z,91680.72
2023-12-11T13:42:21.082Z,91672.28
2023-12-11T13:44:50.662Z,91678.09
2023-12-11T13:47:23.122Z,91693.44
2023-12-11T13:49:52.063Z,91696.13
2023-12-11T13:52:20.693Z,91683.41
2023-12-11T13:54:49.409Z,91687.31
2023-12-11T13:57:18.115Z,91679.63
2023-12-11T13:59:49.122Z,91680.41
2023-12-11T14:02:57.890Z,91681.56
2023-12-11T14:05:08.365Z,91691.19
2023-12-11T14:07:37.355Z,91697.75
2023-12-11T14:10:08.968Z,91694.25
2023-12-11T14:12:39.621Z,91685.44
2023-12-11T14:15:11.065Z,91696.25
2023-12-11T14:17:40.179Z,91687.03
2023-12-11T14:20:10.856Z,91690.47
2023-12-11T14:22:39.749Z,91697.38
2023-12-11T14:25:09.902Z,91699.31
2023-12-11T14:27:38.594Z,91694.34
2023-12-11T14:30:11.360Z,91693.22
2023-12-11T14:32:40.203Z,91701.25
2023-12-11T14:35:09.990Z,91712.75
2023-12-11T14:37:40.483Z,91703.19
2023-12-11T14:40:10.725Z,91720.03
2023-12-11T14:42:39.377Z,91722.72
2023-12-11T14:45:11.123Z,91708.94
2023-12-11T14:47:39.846Z,91706.25
2023-12-11T14:50:10.023Z,91714.66
2023-12-11T14:52:38.753Z,91718.53
2023-12-11T14:55:09.469Z,91722.78
2023-12-11T14:57:38.580Z,91715.16
2023-12-11T15:00:12.284Z,91719.69
2023-12-11T15:02:41.318Z,91728.50
2023-12-11T15:05:10.746Z,91740.00
2023-12-11T15:07:39.402Z,91734.25
2023-12-11T15:10:09.518Z,91738.47
2023-12-11T15:12:38.183Z,91735.78
2023-12-11T15:15:10.112Z,91735.41
2023-12-11T15:17:38.646Z,91741.94
2023-12-11T15:20:11.622Z,91735.03
2023-12-11T15:22:40.391Z,91741.19
2023-12-11T15:25:12.357Z,91742.72
2023-12-11T15:27:40.960Z,91737.34
2023-12-11T15:30:13.296Z,91735.81
2023-12-11T15:32:48.815Z,91739.25
2023-12-11T15:35:18.392Z,91736.63
2023-12-11T15:37:47.056Z,91746.97
2023-12-11T15:40:16.102Z,91754.25
2023-12-11T15:42:45.030Z,91766.13
2023-12-11T15:45:15.265Z,91760.38
2023-12-11T15:48:00.602Z,91758.03
2023-12-11T15:50:32.549Z,91768.06
2023-12-11T15:53:01.694Z,91769.59
2023-12-11T15:55:30.280Z,91772.66
2023-12-11T15:57:58.847Z,91779.94
2023-12-11T16:00:28.777Z,91778.00
2023-12-11T16:02:57.326Z,91775.72
2023-12-11T16:05:26.067Z,91779.16
2023-12-11T16:07:54.590Z,91782.63
2023-12-11T16:10:23.173Z,91769.19
2023-12-11T16:12:51.888Z,91766.53
2023-12-11T16:15:20.680Z,91750.06
2023-12-11T16:17:50.722Z,91771.50
2023-12-11T16:20:20.613Z,91768.44
2023-12-11T16:22:49.198Z,91776.47
2023-12-11T16:25:18.509Z,91769.63
2023-12-11T16:27:47.535Z,91771.91
2023-12-11T16:30:16.816Z,91771.50
2023-12-11T16:32:45.430Z,91777.63
2023-12-11T16:35:15.554Z,91760.41
2023-12-11T16:37:44.310Z,91769.19
2023-12-11T16:40:13.279Z,91771.88
2023-12-11T16:42:42.290Z,91768.84
2023-12-11T16:45:12.618Z,91783.00
2023-12-11T16:47:45.160Z,91779.56
2023-12-11T16:50:15.507Z,91780.72
2023-12-11T16:52:44.110Z,91783.38
2023-12-11T16:55:12.946Z,91781.88
2023-12-11T16:57:41.507Z,91788.75
2023-12-11T17:00:12.894Z,91794.50
2023-12-11T17:02:41.474Z,91781.09
2023-12-11T17:05:10.224Z,91783.75
2023-12-11T17:07:40.299Z,91786.06
2023-12-11T17:10:09.804Z,91782.63
2023-12-11T17:12:38.401Z,91786.84
2023-12-11T17:15:11.024Z,91776.88
2023-12-11T17:17:39.625Z,91785.69
2023-12-11T17:20:10.828Z,91785.69
2023-12-11T17:22:41.085Z,91788.75
2023-12-11T17:25:10.693Z,91791.81
2023-12-11T17:27:39.295Z,91792.59
2023-12-11T17:30:10.380Z,91792.19
2023-12-11T17:32:39.144Z,91790.28
2023-12-11T17:35:08.928Z,91792.56
2023-12-11T17:37:37.839Z,91793.34
2023-12-11T17:40:10.142Z,91787.59
2023-12-11T17:42:38.663Z,91784.16
2023-12-11T17:45:08.561Z,91791.06
2023-12-11T17:47:37.153Z,91787.22
2023-12-11T17:50:07.309Z,91794.88
2023-12-11T17:52:36.148Z,91794.13
2023-12-11T17:55:07.396Z,91790.28
2023-12-11T17:57:37.949Z,91804.84
2023-12-11T18:00:08.335Z,91802.88
2023-12-11T18:02:36.854Z,91815.13
2023-12-11T18:05:07.040Z,91812.50
2023-12-11T18:07:36.038Z,91808.28
2023-12-11T18:10:05.856Z,91813.63
2023-12-11T18:12:34.633Z,91814.00
2023-12-11T18:15:05.343Z,91821.69
2023-12-11T18:17:34.175Z,91830.09
2023-12-11T18:20:03.480Z,91827.03
2023-12-11T18:22:32.268Z,91836.59
2023-12-11T18:25:01.091Z,91841.56
2023-12-11T18:27:30.522Z,91837.78
2023-12-11T18:29:59.258Z,91846.94
2023-12-11T18:32:29.305Z,91844.66
2023-12-11T18:35:00.274Z,91837.41
2023-12-11T18:37:29.235Z,91827.03
2023-12-11T18:39:58.068Z,91846.94
2023-12-11T18:42:26.733Z,91851.53
2023-12-11T18:44:55.276Z,91858.03
2023-12-11T18:47:23.807Z,91855.34
2023-12-11T18:49:53.884Z,91857.25
2023-12-11T18:52:23.005Z,91857.66
2023-12-11T18:54:52.424Z,91867.59
2023-12-11T18:57:21.062Z,91863.03
2023-12-11T18:59:49.637Z,91859.59
2023-12-11T19:02:18.612Z,91866.44
2023-12-11T19:04:47.264Z,91865.31
2023-12-11T19:07:17.287Z,91865.69
2023-12-11T19:09:46.086Z,91874.91
2023-12-11T19:12:14.641Z,91865.31
2023-12-11T19:14:43.371Z,91869.91
2023-12-11T19:17:11.974Z,91872.97
2023-12-11T19:19:40.561Z,91877.94
2023-12-11T19:22:09.152Z,91883.69
2023-12-11T19:24:39.075Z,91877.59
2023-12-11T19:27:07.888Z,91882.16
2023-12-11T19:29:36.937Z,91892.53
2023-12-11T19:32:06.928Z,91884.50
2023-12-11T19:34:36.512Z,91890.19
2023-12-11T19:37:05.903Z,91894.41
2023-12-11T19:39:34.459Z,91894.50
2023-12-11T19:42:04.574Z,91889.81
2023-12-11T19:44:33.089Z,91876.88
2023-12-11T19:47:01.633Z,91882.22
2023-12-11T19:49:30.627Z,91895.25
2023-12-11T19:51:59.258Z,91891.44
2023-12-11T19:54:28.002Z,91897.53
2023-12-11T19:56:56.648Z,91900.63
2023-12-11T19:59:26.650Z,91888.38
2023-12-11T20:01:55.512Z,91904.09
2023-12-11T20:04:24.101Z,91905.22
2023-12-11T20:06:52.945Z,91898.31
2023-12-11T20:09:21.516Z,91894.47
2023-12-11T20:11:59.634Z,91892.97
2023-12-11T20:14:33.992Z,91909.06
2023-12-11T20:17:03.426Z,91900.63
2023-12-11T20:19:32.217Z,91907.53
2023-12-11T20:22:00.852Z,91916.72
2023-12-11T20:24:29.520Z,91913.63
2023-12-11T20:26:58.018Z,91911.38
2023-12-11T20:29:26.522Z,91919.78
2023-12-11T20:31:56.439Z,91913.66
2023-12-11T20:34:25.168Z,91912.88
2023-12-11T20:36:53.810Z,91910.97
2023-12-11T20:39:22.625Z,91912.88
2023-12-11T20:41:51.230Z,91912.88
2023-12-11T20:44:19.788Z,91912.13
2023-12-11T20:46:48.342Z,91907.56
2023-12-11T20:49:18.434Z,91915.59
2023-12-11T20:51:47.686Z,91917.13
2023-12-11T20:54:16.269Z,91915.97
2023-12-11T20:56:45.155Z,91906.00
2023-12-11T20:59:13.961Z,91912.53
2023-12-11T21:01:42.896Z,91922.84
2023-12-11T21:04:11.606Z,91930.53
2023-12-11T21:06:41.696Z,91935.50
2023-12-11T21:09:11.926Z,91923.25
2023-12-11T21:11:40.461Z,91920.53
2023-12-11T21:14:09.076Z,91922.44
2023-12-11T21:16:37.795Z,91921.72
2023-12-11T21:19:06.711Z,91917.91
2023-12-11T21:21:36.902Z,91918.63
2023-12-11T21:24:10.209Z,91918.22
2023-12-11T21:26:38.993Z,91913.69
2023-12-11T21:29:07.686Z,91915.94
2023-12-11T21:31:37.747Z,91916.34
2023-12-11T21:34:06.497Z,91905.22
2023-12-11T21:36:35.142Z,91910.97
2023-12-11T21:39:05.653Z,91918.25
2023-12-11T21:41:36.056Z,91923.22
2023-12-11T21:44:04.925Z,91930.13
2023-12-11T21:46:33.651Z,91912.94
2023-12-11T21:49:03.129Z,91912.91
2023-12-11T21:51:33.732Z,91917.88
2023-12-11T21:54:02.566Z,91914.41
2023-12-11T21:56:31.672Z,91910.63
2023-12-11T21:59:01.948Z,91916.72
2023-12-11T22:01:30.567Z,91898.34
2023-12-11T22:03:59.385Z,91912.13
2023-12-11T22:06:27.975Z,91918.25
2023-12-11T22:08:56.507Z,91927.00
2023-12-11T22:11:25.026Z,91927.44
2023-12-11T22:13:53.592Z,91940.06
2023-12-11T22:16:23.590Z,91945.81
2023-12-11T22:18:52.326Z,91931.25
2023-12-11T22:21:25.104Z,91921.25
2023-12-11T22:23:54.648Z,91933.16
2023-12-11T22:26:23.738Z,91917.00
2023-12-11T22:28:52.292Z,91920.47
2023-12-11T22:31:31.347Z,91921.63
2023-12-11T22:34:00.054Z,91919.31
2023-12-11T22:36:29.520Z,91923.47
2023-12-11T22:38:58.425Z,91935.34
2023-12-11T22:41:27.328Z,91927.66
2023-12-11T22:43:55.982Z,91927.31
2023-12-11T22:46:25.232Z,91924.88
2023-12-11T22:48:57.407Z,91914.00
2023-12-11T22:51:26.230Z,91918.28
2023-12-11T22:53:54.840Z,91921.28
2023-12-11T22:56:23.447Z,91925.84
2023-12-11T22:58:52.048Z,91935.81
2023-12-11T23:01:21.019Z,91941.88
2023-12-11T23:03:49.708Z,91943.63
2023-12-11T23:06:19.931Z,91942.09
2023-12-11T23:08:48.672Z,91946.63
2023-12-11T23:11:17.357Z,91943.50
2023-12-11T23:13:45.878Z,91936.03
2023-12-11T23:16:14.722Z,91927.03
2023-12-11T23:18:43.735Z,91924.78
2023-12-11T23:21:20.619Z,91930.75
2023-12-11T23:23:49.490Z,91936.75
2023-12-11T23:26:18.157Z,91931.25
2023-12-11T23:28:46.698Z,91930.16
2023-12-11T23:31:15.313Z,91929.91
2023-12-11T23:33:44.170Z,91932.31
2023-12-11T23:36:13.308Z,91938.41
2023-12-11T23:38:43.544Z,91936.97
2023-12-11T23:41:12.089Z,91945.28
2023-12-11T23:43:40.620Z,91926.69
2023-12-11T23:46:09.434Z,91920.38
2023-12-11T23:48:38.094Z,91914.84
2023-12-11T23:51:07.077Z,91923.25
2023-12-11T23:53:35.601Z,91925.78
2023-12-11T23:56:06.871Z,91927.91
2023-12-11T23:58:35.886Z,91927.03
